Terminal Aerodrome Forecast
Issued by NWS

Home | Current Version | Previous Version | Text Only | Print | Product List | Glossary On
Versions: 1 2 3 4 5 6 7 8 9 10 11 12 13 14 15 16 17 18 19 20 21 22 23
382
FTUS41 KBUF 221740
TAFIAG
TAF
KIAG 221740Z 2218/2318 22018G28KT P6SM VCSH BKN050
      TEMPO 2218/2222 VRB20G40KT 2SM -TSRA BKN030CB
     FM222200 23024G40KT P6SM VCSH BKN035
     FM230100 28014KT P6SM BKN250
     FM231200 26012G19KT P6SM FEW250
     FM231700 27018KT P6SM BKN045=

USA.gov is the U.S. government's official web portal to all federal, state and local government web resources and services.